首页
METAR-TAF:

METAR-TAF

机场 :

门罗, 北卡罗来纳州, 美国

纬度: 35-01-01N, 经度: 080-37-14W, 海拔: 207米

当前天气观测

该预报发布于1小时和15分钟前的14:53 UTC
风速7节,风向西南
温度 26°C
湿度 74%
气压 1016 hPa
能見度: 16.1公里
多云层高于1900英尺

METAR: KEQY 051453Z AUTO 22007KT 10SM BKN019 26/21 A3000 RMK AO2 SLP159 T02560206 51010

时间: 12:08 (16:08 UTC)


TAF: 丢失

超过4000个机场的气象观测和天气预报(METAR&TAF报告)。

可查询的气象台以黄色和红色小点在地图上表示。

将鼠标移到小点上方,可查看气象台名称。

然后点击查看天气观测和预报。

如需切换地图:点击带黑十字的绿色按钮放大地图;点击带横线的绿色按钮缩小地图;或者点击绿色箭头查看邻近地区的地图。


METAR-TAF: